Livingston, Iowa
Current Conditions -  °F | °C
As of 12:30 PM on Wednesday 26 Nov 2014 (Local Time) from KTVK Reporting Station
Overcast Overcast  
Wind Chill: 26°   Ceiling: 200
Heat Index: 32°   Visibility: 10mi
Dew Point: 32°   Wind: 7mph
Humidity: 100%   Direction: 90°E
Pressure: 29.91"   Gusts: NA
Location:  40.6341°N, 92.9239°W
Report Text: KTVK 261830Z AUTO 09006KT 10SM OVC002 00/00 A2991 RMK AO2
Loading
Personal Weather Stations






























Interactive Weather Map New forecast layout! Learn more

10-Day Weather Forecast

Advertisements
Track Severe Weather on mobile